Terminal Aerodrome Forecast
Issued by NWS

Home | Current Version | Previous Version | Text Only | Print | Product List | Glossary Off
Versions: 1 2 3 4 5 6 7 8 9 10 11 12 13 14 15 16 17 18

000
FTUS43 KOAX 221720
TAFCDR
TAF
KCDR 221720Z 2218/2318 36005KT P6SM FEW250
     FM222300 30009KT P6SM VCTS SCT050CB BKN250
     FM230600 27008KT P6SM SCT200
     FM231400 27012KT P6SM FEW250=

USA.gov is the U.S. government's official web portal to all federal, state and local government web resources and services.